CheckWX is a tool to help pilots better visualize weather data.  It is not intended as a substitute for an official pre-flight weather briefing.

15:30:02 UTC

KAGC METAR
Allegheny County Airport
Pittsburgh, Pennsylvania, USA
Current

37 mins ago

KAGC 291453Z AUTO 20017G24KT SCT041 BKN047 OVC070 21/14 A2970 RMK AO2 PK WND 19030/1429 SLP057 T02110144 58016 $
Observed
Mar-29 @ 14:53 UTC
Wind
  • 200° at 17 KTS
  • Gusting to 24 KTS
Visibility
Cloud Levels
  • Scattered at 4,100' AGL
  • Broken at 4,700' AGL
  • Overcast at 7,000' AGL
Temperature
21°C / 70°F
Dewpoint
14°C / 57°F
Humidity
64%
Altimeter
29.7" Hg
Pressure
1005.72 hPa
Previous

2 hours ago

KAGC 291353Z 19012G21KT 10SM FEW070 19/15 A2973 RMK AO2 PK WND 19028/1319 SLP065 T01940150 $
Observed
Mar-29 @ 13:53 UTC
Wind
  • 190° at 12 KTS
  • Gusting to 21 KTS
Visibility
10 SM
Flight Rules
VFR
Cloud Levels
  • Few at 7,000' AGL
Temperature
19°C / 66°F
Dewpoint
15°C / 59°F
Humidity
78%
Altimeter
29.73" Hg
Pressure
1006.82 hPa
Previous

3 hours ago

KAGC 291253Z 17012KT FEW080 BKN100 BKN120 18/14 A2973 RMK AO2 SLP068 T01780144 $
Observed
Mar-29 @ 12:53 UTC
Wind
  • 170° at 12 KTS
Visibility
Cloud Levels
  • Few at 8,000' AGL
  • Broken at 10,000' AGL
  • Broken at 12,000' AGL
Temperature
18°C / 64°F
Dewpoint
14°C / 57°F
Humidity
78%
Altimeter
29.73" Hg
Pressure
1006.82 hPa